createdAt,value
2018-08-20T00:00:18.067Z,27.3
2018-08-20T00:01:08.119Z,27.3
2018-08-20T00:01:58.208Z,27.3
2018-08-20T00:02:48.284Z,27.3
2018-08-20T00:03:38.324Z,27.3
2018-08-20T00:04:27.461Z,27.3
2018-08-20T00:05:17.907Z,27.3
2018-08-20T00:06:07.869Z,27.3
2018-08-20T00:06:58.089Z,27.3
2018-08-20T00:07:48.367Z,27.3
2018-08-20T00:08:38.714Z,27.3
2018-08-20T00:09:28.794Z,27.3
2018-08-20T00:10:18.775Z,27.3
2018-08-20T00:11:08.910Z,27.3
2018-08-20T00:11:58.405Z,27.3
2018-08-20T00:12:48.477Z,27.3
2018-08-20T00:13:38.551Z,27.3
2018-08-20T00:14:29.148Z,27.3
2018-08-20T00:15:18.999Z,27.3
2018-08-20T00:16:09.072Z,27.3
2018-08-20T00:16:59.312Z,27.3
2018-08-20T00:17:49.112Z,27.3
2018-08-20T00:18:39.237Z,27.3
2018-08-20T00:37:26.896Z,27.2
2018-08-20T00:38:16.234Z,27.2
2018-08-20T00:39:06.264Z,27.2
2018-08-20T00:39:57.123Z,27.2
2018-08-20T00:40:47.146Z,27.2
2018-08-20T00:41:36.960Z,27.2
2018-08-20T00:42:27.016Z,27.2
2018-08-20T00:43:17.063Z,27.2
2018-08-20T00:44:07.466Z,27.2
2018-08-20T00:44:57.495Z,27.2
2018-08-20T00:45:47.523Z,27.2
2018-08-20T00:46:37.367Z,27.1
2018-08-20T00:47:26.381Z,27.2
2018-08-20T00:48:17.321Z,27.1
2018-08-20T00:49:06.221Z,27.2
2018-08-20T00:49:57.137Z,27.2
2018-08-20T00:50:47.180Z,27.2
2018-08-20T00:51:37.760Z,27.1
2018-08-20T00:52:27.620Z,27.1
2018-08-20T00:53:17.876Z,27.1
2018-08-20T00:54:07.956Z,27.1
2018-08-20T00:54:57.990Z,27.1
2018-08-20T00:55:47.804Z,27.1
2018-08-20T00:56:37.577Z,27.1
2018-08-20T00:57:27.624Z,27.1
2018-08-20T00:58:18.294Z,27.1
2018-08-20T00:59:08.054Z,27.1
2018-08-20T00:59:58.188Z,27.1
2018-08-20T01:00:47.965Z,27.1
2018-08-20T01:01:38.044Z,27.1
2018-08-20T01:02:28.886Z,27.1
2018-08-20T01:03:18.676Z,27.1
2018-08-20T01:04:08.705Z,27.1
2018-08-20T01:04:58.191Z,27.1
2018-08-20T01:05:49.106Z,27.1
2018-08-20T01:06:38.593Z,27.1
2018-08-20T01:07:29.228Z,27.1
2018-08-20T01:08:19.002Z,27.1
2018-08-20T01:09:08.805Z,27.1
2018-08-20T01:09:58.895Z,27.1
2018-08-20T01:10:49.487Z,27.1
2018-08-20T01:11:39.290Z,27.1
2018-08-20T01:12:29.608Z,27.1
2018-08-20T01:13:19.113Z,27.1
2018-08-20T01:14:09.208Z,27.1
2018-08-20T01:14:59.246Z,27.1
2018-08-20T01:15:49.377Z,27.1
2018-08-20T01:16:39.190Z,27.1
2018-08-20T01:17:29.541Z,27.1
2018-08-20T01:18:19.778Z,27.1
2018-08-20T01:19:09.361Z,27.1
2018-08-20T01:19:59.425Z,27.1
2018-08-20T01:20:50.270Z,27.1
2018-08-20T01:21:40.305Z,27.1
2018-08-20T01:22:29.573Z,27.1
2018-08-20T01:23:20.482Z,27.1
2018-08-20T01:24:10.526Z,27.1
2018-08-20T01:25:00.592Z,27.1
2018-08-20T01:25:50.418Z,27.1
2018-08-20T01:26:40.724Z,27.1
2018-08-20T01:27:30.826Z,27.1
2018-08-20T01:28:20.886Z,27.1
2018-08-20T01:29:10.964Z,27
2018-08-20T01:30:00.442Z,27
2018-08-20T01:30:51.038Z,27
2018-08-20T01:31:40.853Z,27.1
2018-08-20T01:32:30.614Z,27
2018-08-20T01:33:20.967Z,27
2018-08-20T01:34:11.383Z,27
2018-08-20T01:35:00.898Z,27
2018-08-20T01:35:51.186Z,27
2018-08-20T01:36:41.028Z,27
2018-08-20T01:37:31.046Z,27
2018-08-20T01:38:21.709Z,27
2018-08-20T01:39:11.712Z,27
2018-08-20T01:40:00.924Z,27
2018-08-20T01:40:51.854Z,27
2018-08-20T01:41:41.570Z,27
2018-08-20T01:42:31.942Z,27
2018-08-20T01:43:21.449Z,27
2018-08-20T01:44:12.086Z,27
2018-08-20T01:45:01.880Z,27
2018-08-20T01:45:51.671Z,27
2018-08-20T01:46:41.708Z,27
2018-08-20T01:47:32.038Z,27
2018-08-20T01:48:22.113Z,27
2018-08-20T01:49:12.180Z,27
2018-08-20T01:50:01.945Z,27
2018-08-20T01:50:52.578Z,27
2018-08-20T01:51:42.388Z,27
2018-08-20T01:52:32.149Z,26.9
2018-08-20T01:53:22.551Z,26.9
2018-08-20T01:54:12.560Z,27
2018-08-20T01:55:02.919Z,26.9
2018-08-20T01:55:52.663Z,26.9
2018-08-20T01:56:42.762Z,26.9
2018-08-20T01:57:33.119Z,26.9
2018-08-20T01:58:23.173Z,26.9
2018-08-20T01:59:12.394Z,26.9
2018-08-20T02:00:03.359Z,26.9
2018-08-20T02:00:52.245Z,26.9
2018-08-20T02:01:42.581Z,26.9
2018-08-20T02:02:32.935Z,26.9
2018-08-20T02:03:22.537Z,26.9
2018-08-20T02:04:12.796Z,26.9
2018-08-20T02:05:03.453Z,26.9
2018-08-20T02:05:53.234Z,26.9
2018-08-20T02:06:42.507Z,26.9
2018-08-20T02:07:32.857Z,26.9
2018-08-20T02:08:22.915Z,26.9
2018-08-20T02:09:13.297Z,26.9
2018-08-20T02:10:03.260Z,26.9
2018-08-20T02:10:53.040Z,26.9
2018-08-20T02:11:44.260Z,26.9
2018-08-20T02:12:34.051Z,26.9
2018-08-20T02:13:24.103Z,26.9
2018-08-20T02:14:12.982Z,26.9
2018-08-20T02:15:04.523Z,26.9
2018-08-20T02:15:53.698Z,26.9
2018-08-20T02:16:43.645Z,26.9
2018-08-20T02:17:34.074Z,26.9
2018-08-20T02:18:24.459Z,26.9
2018-08-20T02:19:14.212Z,26.9
2018-08-20T02:20:04.581Z,26.9
2018-08-20T02:20:53.363Z,26.9
2018-08-20T02:21:43.939Z,26.9
2018-08-20T02:22:34.779Z,26.9
2018-08-20T02:23:24.528Z,26.9
2018-08-20T02:24:14.325Z,26.9
2018-08-20T02:25:04.669Z,26.9
2018-08-20T02:25:54.448Z,26.9
2018-08-20T02:26:44.802Z,26.9
2018-08-20T02:27:34.878Z,26.9
2018-08-20T02:28:25.016Z,26.9
2018-08-20T02:29:14.473Z,26.9
2018-08-20T02:30:05.340Z,26.8
2018-08-20T02:30:55.403Z,26.8
2018-08-20T02:31:45.758Z,26.9
2018-08-20T02:32:35.529Z,26.9
2018-08-20T02:33:25.601Z,26.8
2018-08-20T02:34:15.403Z,26.8
2018-08-20T02:35:05.748Z,26.8
2018-08-20T02:35:55.555Z,26.8
2018-08-20T02:36:45.882Z,26.8
2018-08-20T02:37:35.928Z,26.8
2018-08-20T02:38:25.998Z,26.8
2018-08-20T02:39:15.777Z,26.9
2018-08-20T02:40:05.835Z,26.8
2018-08-20T02:40:55.347Z,26.8
2018-08-20T02:41:46.286Z,26.8
2018-08-20T02:42:36.397Z,26.8
2018-08-20T02:43:26.678Z,26.8
2018-08-20T02:44:16.177Z,26.8
2018-08-20T02:45:06.555Z,26.8
2018-08-20T02:45:56.313Z,26.8
2018-08-20T02:46:46.378Z,26.8
2018-08-20T02:47:36.710Z,26.8
2018-08-20T02:48:26.770Z,26.8
2018-08-20T02:49:16.845Z,26.8
2018-08-20T02:50:07.230Z,26.8
2018-08-20T02:50:57.243Z,26.8
2018-08-20T02:51:47.334Z,26.8
2018-08-20T02:52:37.096Z,26.8
2018-08-20T02:53:27.125Z,26.8
2018-08-20T02:54:17.210Z,26.8
2018-08-20T02:55:07.599Z,26.8
2018-08-20T02:55:57.322Z,26.8
2018-08-20T02:56:47.440Z,26.8
2018-08-20T02:57:37.167Z,26.8
2018-08-20T02:58:27.511Z,26.8
2018-08-20T02:59:17.889Z,26.8
2018-08-20T03:00:07.968Z,26.8
2018-08-20T03:00:57.803Z,26.8
2018-08-20T03:01:47.191Z,26.8
2018-08-20T03:02:37.856Z,26.8
2018-08-20T03:03:27.887Z,26.8
2018-08-20T03:04:17.670Z,26.8
2018-08-20T03:05:08.061Z,26.8
2018-08-20T03:05:57.812Z,26.8
2018-08-20T03:06:48.180Z,26.8
2018-08-20T03:07:38.516Z,26.8
2018-08-20T03:08:28.575Z,26.8
2018-08-20T03:09:18.664Z,26.8
2018-08-20T03:10:08.429Z,26.8
2018-08-20T03:10:58.519Z,26.7
2018-08-20T03:11:48.846Z,26.8
2018-08-20T03:12:38.350Z,26.8
2018-08-20T03:13:28.702Z,26.7
2018-08-20T03:14:18.765Z,26.8
2018-08-20T03:15:09.127Z,26.7
2018-08-20T03:15:58.951Z,26.8
2018-08-20T03:16:48.789Z,26.8
2018-08-20T03:17:38.852Z,26.7
2018-08-20T03:18:28.060Z,26.7
2018-08-20T03:19:19.175Z,26.8
2018-08-20T03:20:09.251Z,26.8
2018-08-20T03:20:59.641Z,26.7
2018-08-20T03:21:49.356Z,26.7
2018-08-20T03:22:39.449Z,26.7
2018-08-20T03:23:29.756Z,26.7
2018-08-20T03:24:19.808Z,26.7
2018-08-20T03:25:24.804Z,26.8
2018-08-20T03:25:59.987Z,26.7
2018-08-20T03:26:50.001Z,26.7
2018-08-20T03:27:40.057Z,26.7
2018-08-20T03:28:29.842Z,26.7
2018-08-20T03:29:20.100Z,26.7
2018-08-20T03:30:09.990Z,26.7
2018-08-20T03:31:00.374Z,26.7
2018-08-20T03:31:50.417Z,26.8
2018-08-20T03:32:40.179Z,26.7
2018-08-20T03:33:30.281Z,26.7
2018-08-20T03:34:20.627Z,26.7
2018-08-20T03:35:10.625Z,26.7
2018-08-20T03:36:00.512Z,26.7
2018-08-20T03:36:50.582Z,26.7
2018-08-20T03:37:40.868Z,26.7
2018-08-20T03:38:30.927Z,26.7
2018-08-20T03:39:20.951Z,26.7
2018-08-20T03:40:10.463Z,26.7
2018-08-20T03:41:00.791Z,26.7
2018-08-20T03:41:51.167Z,26.7
2018-08-20T03:42:40.949Z,26.7
2018-08-20T03:43:31.256Z,26.7
2018-08-20T03:44:21.362Z,26.7
2018-08-20T03:45:11.121Z,26.7
2018-08-20T03:46:01.486Z,26.7
2018-08-20T03:46:51.568Z,26.7
2018-08-20T03:47:41.357Z,26.7
2018-08-20T03:48:31.679Z,26.6
2018-08-20T03:49:21.766Z,26.6
2018-08-20T03:50:11.523Z,26.6
2018-08-20T03:51:01.608Z,26.6
2018-08-20T03:51:51.956Z,26.6
2018-08-20T03:52:41.764Z,26.6
2018-08-20T03:53:32.076Z,26.7
2018-08-20T03:54:21.590Z,26.6
2018-08-20T03:55:11.443Z,26.6
2018-08-20T03:56:01.822Z,26.6
2018-08-20T03:56:51.554Z,26.6
2018-08-20T03:57:40.981Z,26.6
2018-08-20T03:58:31.710Z,26.6
2018-08-20T03:59:22.073Z,26.6
2018-08-20T04:00:12.072Z,26.6
2018-08-20T04:01:01.512Z,26.6
2018-08-20T04:01:52.203Z,26.6
2018-08-20T04:02:42.042Z,26.6
2018-08-20T04:03:32.591Z,26.6
2018-08-20T04:04:22.908Z,26.6
2018-08-20T04:05:12.951Z,26.6
2018-08-20T04:06:02.884Z,26.6
2018-08-20T04:06:53.078Z,26.6
2018-08-20T04:07:43.216Z,26.6
2018-08-20T04:08:33.221Z,26.6
2018-08-20T04:09:22.983Z,26.6
2018-08-20T04:10:13.061Z,26.6
2018-08-20T04:11:03.109Z,26.6
2018-08-20T04:11:53.195Z,26.6
2018-08-20T04:12:43.532Z,26.6
2018-08-20T04:13:33.050Z,26.6
2018-08-20T04:14:23.437Z,26.6
2018-08-20T04:15:13.455Z,26.6
2018-08-20T04:16:03.795Z,26.6
2018-08-20T04:16:53.985Z,26.6
2018-08-20T04:17:43.904Z,26.6
2018-08-20T04:18:33.747Z,26.6
2018-08-20T04:19:23.751Z,26.6
2018-08-20T04:20:13.829Z,26.6
2018-08-20T04:21:04.204Z,26.6
2018-08-20T04:21:53.712Z,26.6
2018-08-20T04:22:44.315Z,26.6
2018-08-20T04:23:34.405Z,26.6
2018-08-20T04:24:24.199Z,26.6
2018-08-20T04:25:13.951Z,26.6
2018-08-20T04:26:04.582Z,26.6
2018-08-20T04:26:54.664Z,26.6
2018-08-20T04:27:44.489Z,26.6
2018-08-20T04:28:34.779Z,26.6
2018-08-20T04:29:24.866Z,26.6
2018-08-20T04:30:14.890Z,26.6
2018-08-20T04:31:04.991Z,26.6
2018-08-20T04:31:55.056Z,26.6
2018-08-20T04:32:44.565Z,26.6
2018-08-20T04:33:34.892Z,26.6
2018-08-20T04:34:24.959Z,26.6
2018-08-20T04:35:15.308Z,26.6
2018-08-20T04:36:05.077Z,26.6
2018-08-20T04:36:55.442Z,26.6
2018-08-20T04:37:45.233Z,26.6
2018-08-20T04:38:34.997Z,26.6
2018-08-20T04:39:25.150Z,26.6
2018-08-20T04:40:15.666Z,26.6
2018-08-20T04:41:05.751Z,26.6
2018-08-20T04:41:55.791Z,26.6
2018-08-20T04:42:45.568Z,26.6
2018-08-20T04:43:35.964Z,26.6
2018-08-20T04:44:26.039Z,26.6
2018-08-20T04:45:16.020Z,26.6
2018-08-20T04:46:06.140Z,26.6
2018-08-20T04:46:55.903Z,26.6
2018-08-20T04:47:45.981Z,26.6
2018-08-20T04:48:36.345Z,26.6
2018-08-20T05:06:39.801Z,26.6
2018-08-20T05:07:29.269Z,26.6
2018-08-20T05:08:19.102Z,26.6
2018-08-20T05:09:09.941Z,26.6
2018-08-20T05:09:59.730Z,26.6
2018-08-20T05:10:50.031Z,26.6
2018-08-20T05:11:39.813Z,26.6
2018-08-20T05:12:29.870Z,26.6
2018-08-20T05:13:20.224Z,26.6
2018-08-20T05:14:10.307Z,26.6
2018-08-20T05:14:59.874Z,26.7
2018-08-20T05:15:50.444Z,26.7
2018-08-20T05:16:40.031Z,26.7
2018-08-20T05:17:30.594Z,26.7
2018-08-20T05:18:20.353Z,26.8
2018-08-20T05:19:10.699Z,26.8
2018-08-20T05:20:00.768Z,26.8
2018-08-20T05:20:50.553Z,26.7
2018-08-20T05:21:40.613Z,26.7
2018-08-20T05:22:30.964Z,26.7
2018-08-20T05:23:20.756Z,26.6
2018-08-20T05:24:11.087Z,26.7
2018-08-20T05:25:01.164Z,26.6
2018-08-20T05:25:51.209Z,26.7
2018-08-20T05:26:40.999Z,26.6
2018-08-20T05:27:31.351Z,26.6
2018-08-20T05:28:21.407Z,26.6
2018-08-20T05:29:10.627Z,26.6
2018-08-20T05:30:01.551Z,26.6
2018-08-20T05:30:51.587Z,26.6
2018-08-20T05:31:41.381Z,26.6
2018-08-20T05:32:31.766Z,26.6
2018-08-20T05:33:22.073Z,26.6
2018-08-20T05:34:11.815Z,26.6
2018-08-20T05:35:01.879Z,26.6
2018-08-20T05:35:51.656Z,26.6
2018-08-20T05:36:41.746Z,26.6
2018-08-20T05:37:31.818Z,26.6
2018-08-20T05:38:22.159Z,26.6
2018-08-20T05:39:12.223Z,26.6
2018-08-20T05:40:02.292Z,26.6
2018-08-20T05:40:52.355Z,26.6
2018-08-20T05:41:42.133Z,26.6
2018-08-20T05:42:32.470Z,26.6
2018-08-20T05:43:22.581Z,26.6
2018-08-20T05:44:12.023Z,26.6
2018-08-20T05:45:02.691Z,26.6
2018-08-20T05:45:52.439Z,26.6
2018-08-20T05:46:42.822Z,26.5
2018-08-20T05:47:32.873Z,26.5
2018-08-20T05:48:22.692Z,26.5
2018-08-20T05:49:13.002Z,26.5
2018-08-20T05:50:03.062Z,26.5
2018-08-20T05:50:53.093Z,26.5
2018-08-20T05:51:43.255Z,26.5
2018-08-20T05:52:33.835Z,26.5
2018-08-20T05:53:23.357Z,26.5
2018-08-20T05:54:12.538Z,26.5
2018-08-20T05:55:03.490Z,26.5
2018-08-20T05:55:53.559Z,26.5
2018-08-20T05:56:43.638Z,26.4
2018-08-20T05:57:33.677Z,26.5
2018-08-20T05:58:23.750Z,26.5
2018-08-20T05:59:14.168Z,26.5
2018-08-20T06:00:03.920Z,26.5
2018-08-20T06:00:53.361Z,26.5
2018-08-20T06:01:43.724Z,26.5
2018-08-20T06:02:34.057Z,26.4
2018-08-20T06:03:23.874Z,26.4
2018-08-20T06:04:13.707Z,26.4
2018-08-20T06:05:04.290Z,26.4
2018-08-20T06:05:54.037Z,26.4
2018-08-20T06:06:44.410Z,26.4
2018-08-20T06:07:34.472Z,26.4
2018-08-20T06:08:24.544Z,26.4
2018-08-20T06:09:14.287Z,26.4
2018-08-20T06:10:04.425Z,26.4
2018-08-20T06:10:54.408Z,26.4
2018-08-20T06:11:44.199Z,26.4
2018-08-20T06:12:34.835Z,26.4
2018-08-20T06:13:24.593Z,26.4
2018-08-20T06:14:14.677Z,26.4
2018-08-20T06:15:05.035Z,26.4
2018-08-20T06:15:54.810Z,26.4
2018-08-20T06:16:44.869Z,26.4
2018-08-20T06:17:34.921Z,26.7
2018-08-20T06:18:25.302Z,27.4
2018-08-20T06:19:15.101Z,39.8
2018-08-20T06:20:05.151Z,46.2
2018-08-20T06:20:54.907Z,46.6
2018-08-20T06:21:45.262Z,45.1
2018-08-20T06:22:35.938Z,44.5
2018-08-20T06:23:25.744Z,44.2
2018-08-20T06:24:15.471Z,43.9
2018-08-20T06:25:05.831Z,43.7
2018-08-20T06:25:55.308Z,43.4
2018-08-20T06:26:45.631Z,43.1
2018-08-20T06:27:36.024Z,42.9
2018-08-20T06:28:26.115Z,42.7
2018-08-20T06:29:16.146Z,42.4
2018-08-20T06:30:06.226Z,42.2
2018-08-20T06:30:56.290Z,41.9
2018-08-20T06:31:46.351Z,41.8
2018-08-20T06:32:36.433Z,41.6
2018-08-20T06:33:26.471Z,41.3
2018-08-20T06:34:16.510Z,41.1
2018-08-20T06:35:06.288Z,40.9
2018-08-20T06:35:56.648Z,40.8
2018-08-20T06:36:46.836Z,40.6
2018-08-20T06:37:36.805Z,40.4
2018-08-20T06:38:26.403Z,40.2
2018-08-20T06:39:16.914Z,40.1
2018-08-20T06:40:06.388Z,39.9
2018-08-20T06:40:57.040Z,39.7
2018-08-20T06:41:47.225Z,38.4
2018-08-20T06:42:37.185Z,45.6
2018-08-20T06:43:26.951Z,48.9
2018-08-20T06:44:17.000Z,48.8
2018-08-20T06:45:07.027Z,47.6
2018-08-20T06:45:57.128Z,45.3
2018-08-20T06:46:47.185Z,43.1
2018-08-20T06:47:37.233Z,42.2
2018-08-20T06:48:27.280Z,41.6
2018-08-20T06:49:17.709Z,41.3
2018-08-20T06:50:07.427Z,40.9
2018-08-20T06:50:57.498Z,40.6
2018-08-20T06:51:47.875Z,40.4
2018-08-20T06:52:37.615Z,40.8
2018-08-20T06:53:27.695Z,45.7
2018-08-20T06:54:18.047Z,49.5
2018-08-20T06:55:08.135Z,50.3
2018-08-20T06:55:57.342Z,50
2018-08-20T06:56:47.394Z,48.6
2018-08-20T06:57:38.314Z,46.6
2018-08-20T06:58:28.077Z,45.8
2018-08-20T06:59:17.867Z,46.3
2018-08-20T07:00:08.214Z,47.5
2018-08-20T07:00:58.554Z,48.4
2018-08-20T07:01:48.691Z,49
2018-08-20T07:02:38.730Z,49
2018-08-20T07:03:28.779Z,48.6
2018-08-20T07:04:18.878Z,48.3
2018-08-20T07:05:08.959Z,48.3
2018-08-20T07:05:58.712Z,48.4
2018-08-20T07:06:49.079Z,48.8
2018-08-20T07:07:39.091Z,49.2
2018-08-20T07:08:28.904Z,49.4
2018-08-20T07:09:19.252Z,49.6
2018-08-20T07:10:09.377Z,49.6
2018-08-20T07:10:59.354Z,49.6
2018-08-20T07:11:49.543Z,49.7
2018-08-20T07:12:39.511Z,49.9
2018-08-20T07:13:29.612Z,50.1
2018-08-20T07:14:19.661Z,50.3
2018-08-20T07:15:09.725Z,50.5
2018-08-20T07:15:59.801Z,50.6
2018-08-20T07:16:49.866Z,50.6
2018-08-20T07:17:39.791Z,50.8
2018-08-20T07:18:29.186Z,50.9
2018-08-20T07:19:20.046Z,51.1
2018-08-20T07:20:09.844Z,51.2
2018-08-20T07:20:59.675Z,51.3
2018-08-20T07:21:50.238Z,51.4
2018-08-20T07:22:40.100Z,51.6
2018-08-20T07:23:30.349Z,51.8
2018-08-20T07:24:20.362Z,51.9
2018-08-20T07:25:09.888Z,52
2018-08-20T07:26:00.522Z,52.1
2018-08-20T07:26:50.322Z,52.3
2018-08-20T07:28:30.445Z,52.5
2018-08-20T07:29:20.200Z,52.6
2018-08-20T07:30:10.877Z,52.8
2018-08-20T07:31:00.937Z,52.8
2018-08-20T07:31:50.493Z,52.9
2018-08-20T07:32:40.491Z,52.9
2018-08-20T07:33:31.114Z,52.9
2018-08-20T07:34:20.889Z,53
2018-08-20T07:35:10.972Z,53.1
2018-08-20T07:36:01.324Z,53.3
2018-08-20T07:36:51.075Z,53.4
2018-08-20T07:37:40.930Z,53.7
2018-08-20T07:38:31.527Z,53.8
2018-08-20T07:39:21.290Z,54
2018-08-20T07:40:11.654Z,54.1
2018-08-20T07:41:01.694Z,54.1
2018-08-20T07:41:51.739Z,53.8
2018-08-20T07:42:41.820Z,53.4
2018-08-20T07:43:31.323Z,53.2
2018-08-20T07:44:21.934Z,53.3
2018-08-20T07:45:11.999Z,53.5
2018-08-20T07:46:02.068Z,53.8
2018-08-20T07:46:52.134Z,53.9
2018-08-20T07:47:42.183Z,53.9
2018-08-20T07:48:32.264Z,53.8
2018-08-20T07:49:22.051Z,53.7
2018-08-20T07:50:12.386Z,53.6
2018-08-20T07:51:02.734Z,53.5
2018-08-20T07:51:52.823Z,53.4
2018-08-20T07:52:42.576Z,53.4
2018-08-20T07:53:32.750Z,53.5
2018-08-20T07:54:22.721Z,53.6
2018-08-20T07:55:12.493Z,53.4
2018-08-20T07:56:02.834Z,53.3
2018-08-20T07:56:52.884Z,53.1
2018-08-20T07:57:42.661Z,52.9
2018-08-20T07:58:32.733Z,53
2018-08-20T07:59:23.088Z,53.3
2018-08-20T08:00:13.118Z,53.5
2018-08-20T08:01:02.936Z,53.4
2018-08-20T08:01:53.281Z,53.1
2018-08-20T08:02:43.358Z,52.7
2018-08-20T08:03:33.136Z,52.3
2018-08-20T08:04:23.453Z,52.1
2018-08-20T08:05:13.545Z,52.2
2018-08-20T08:06:53.650Z,52.6
2018-08-20T08:07:43.726Z,52.8
2018-08-20T08:08:33.349Z,53.1
2018-08-20T08:09:23.113Z,53.4
2018-08-20T08:10:13.976Z,53.9
2018-08-20T08:11:03.985Z,54.3
2018-08-20T08:11:54.075Z,54.8
2018-08-20T08:12:44.107Z,55.1
2018-08-20T08:13:34.175Z,55.5
2018-08-20T08:14:24.293Z,55.9
2018-08-20T08:15:14.323Z,56.2
2018-08-20T08:16:03.887Z,56.5
2018-08-20T08:16:54.470Z,56.9
2018-08-20T08:17:44.532Z,56.9
2018-08-20T08:18:34.353Z,56.8
2018-08-20T08:19:24.192Z,56.5
2018-08-20T08:20:14.449Z,56.4
2018-08-20T08:21:04.802Z,56.6
2018-08-20T08:21:54.845Z,56.8
2018-08-20T08:22:44.637Z,57.3
2018-08-20T08:23:34.995Z,57.7
2018-08-20T08:24:25.037Z,58
2018-08-20T08:25:15.186Z,58.2
2018-08-20T08:26:04.917Z,58.3
2018-08-20T08:26:55.260Z,58.5
2018-08-20T08:27:45.044Z,58.8
2018-08-20T08:28:35.085Z,59
2018-08-20T08:29:24.984Z,59.3
2018-08-20T08:30:15.511Z,59.4
2018-08-20T08:31:05.569Z,59.6
2018-08-20T08:31:55.341Z,59.8
2018-08-20T08:32:45.714Z,59.9
2018-08-20T08:33:35.808Z,60.1
2018-08-20T08:34:25.841Z,60.3
2018-08-20T08:35:15.596Z,60.4
2018-08-20T08:36:05.359Z,60.6
2018-08-20T08:36:55.998Z,60.7
2018-08-20T08:37:45.781Z,60.8
2018-08-20T08:38:36.149Z,60.9
2018-08-20T08:39:26.269Z,61.1
2018-08-20T08:40:16.019Z,61.2
2018-08-20T08:41:06.336Z,61.3
2018-08-20T08:41:56.133Z,61.4
2018-08-20T08:42:46.218Z,61.5
2018-08-20T08:43:36.518Z,61.6
2018-08-20T08:44:26.583Z,61.7
2018-08-20T08:45:16.671Z,61.8
2018-08-20T08:46:06.713Z,61.9
2018-08-20T08:46:56.260Z,62
2018-08-20T08:47:46.867Z,62.1
2018-08-20T08:48:36.921Z,62.2
2018-08-20T08:49:27.018Z,62.3
2018-08-20T08:50:16.789Z,62.4
2018-08-20T08:51:07.148Z,62.5
2018-08-20T08:51:56.920Z,62.6
2018-08-20T08:52:46.718Z,62.7
2018-08-20T08:53:37.338Z,62.8
2018-08-20T08:54:27.412Z,62.9
2018-08-20T08:55:17.450Z,62.9
2018-08-20T08:56:07.525Z,63.1
2018-08-20T08:56:57.583Z,63.1
2018-08-20T08:57:47.102Z,63.3
2018-08-20T08:58:37.724Z,63.4
2018-08-20T08:59:27.789Z,63.6
2018-08-20T09:00:18.037Z,63.8
2018-08-20T09:01:07.914Z,63.9
2018-08-20T09:01:57.987Z,64
2018-08-20T09:02:48.030Z,63.3
2018-08-20T09:03:38.108Z,61.8
2018-08-20T09:04:28.177Z,60.3
2018-08-20T09:21:07.035Z,63.9
2018-08-20T09:21:57.109Z,64.2
2018-08-20T09:22:47.419Z,64.4
2018-08-20T09:23:37.524Z,64.4
2018-08-20T09:24:27.557Z,64.6
2018-08-20T09:25:17.615Z,64.6
2018-08-20T09:26:07.400Z,64.7
2018-08-20T09:26:57.735Z,64.9
2018-08-20T09:27:47.804Z,65
2018-08-20T09:28:37.859Z,65.1
2018-08-20T09:29:27.991Z,64.9
2018-08-20T09:30:18.029Z,64.8
2018-08-20T09:31:08.129Z,64.6
2018-08-20T09:31:57.888Z,64.6
2018-08-20T09:32:48.264Z,64.8
2018-08-20T09:33:38.301Z,64.9
2018-08-20T09:34:28.364Z,64.7
2018-08-20T09:35:18.153Z,64.4
2018-08-20T09:36:08.493Z,64.1
2018-08-20T09:36:58.273Z,63.9
2018-08-20T09:37:48.627Z,63.8
2018-08-20T09:38:38.596Z,64
2018-08-20T09:39:28.755Z,64.5
2018-08-20T09:40:18.549Z,64.9
2018-08-20T09:41:08.610Z,65.1
2018-08-20T09:41:58.962Z,65.3
2018-08-20T09:42:48.793Z,65.4
2018-08-20T09:43:39.028Z,65.4
2018-08-20T09:44:28.627Z,65.4
2018-08-20T09:45:19.235Z,65.5
2018-08-20T09:46:09.292Z,65.6
2018-08-20T09:46:59.085Z,65.8
2018-08-20T09:47:49.356Z,65.9
2018-08-20T09:48:39.463Z,66.1
2018-08-20T09:49:29.515Z,66.1
2018-08-20T09:50:19.592Z,66.1
2018-08-20T09:51:09.367Z,66.2
2018-08-20T09:51:59.793Z,66.2
2018-08-20T09:52:49.782Z,66.3
2018-08-20T09:53:39.875Z,66.4
2018-08-20T09:54:29.892Z,66.5
2018-08-20T09:55:19.984Z,66.6
2018-08-20T09:56:10.024Z,66.8
2018-08-20T09:57:00.095Z,66.8
2018-08-20T09:57:49.924Z,66.9
2018-08-20T09:58:39.980Z,67
2018-08-20T09:59:30.302Z,67.1
2018-08-20T10:00:20.104Z,67.1
2018-08-20T10:01:10.422Z,67.2
2018-08-20T10:02:00.487Z,67.3
2018-08-20T10:02:50.547Z,67.4
2018-08-20T10:03:40.657Z,67.4
2018-08-20T10:04:30.699Z,67.1
2018-08-20T10:05:20.739Z,67.3
2018-08-20T10:06:10.617Z,67.4
2018-08-20T10:07:00.934Z,67.4
2018-08-20T10:07:50.984Z,66.3
2018-08-20T10:08:40.756Z,64.6
2018-08-20T10:09:31.495Z,62.9
2018-08-20T10:10:21.277Z,61.8
2018-08-20T10:11:11.031Z,61.1
2018-08-20T10:12:01.417Z,60.9
2018-08-20T10:12:51.100Z,61.9
2018-08-20T10:13:41.421Z,63.2
2018-08-20T10:14:31.507Z,64.1
2018-08-20T10:15:21.564Z,64.6
2018-08-20T10:16:11.634Z,64.8
2018-08-20T10:17:01.466Z,64.7
2018-08-20T10:17:51.473Z,64.6
2018-08-20T10:18:41.952Z,64.7
2018-08-20T10:19:31.900Z,65.1
2018-08-20T10:20:21.956Z,65.5
2018-08-20T10:21:11.752Z,65.9
2018-08-20T10:22:02.101Z,66.3
2018-08-20T10:22:52.161Z,66.4
2018-08-20T10:23:42.183Z,66.6
2018-08-20T10:24:32.422Z,66.7
2018-08-20T10:25:22.327Z,66.9
2018-08-20T10:26:12.387Z,66.9
2018-08-20T10:27:02.465Z,66.8
2018-08-20T10:27:52.526Z,66.2
2018-08-20T10:28:42.650Z,65.8
2018-08-20T10:29:32.661Z,65.9
2018-08-20T10:30:22.423Z,66.1
2018-08-20T10:31:12.799Z,65.4
2018-08-20T10:32:03.498Z,64.5
2018-08-20T10:32:52.918Z,64.4
2018-08-20T10:33:42.965Z,64.3
2018-08-20T10:34:33.049Z,64.3
2018-08-20T10:35:23.107Z,64.3
2018-08-20T10:36:13.160Z,64.2
2018-08-20T10:37:03.244Z,63.8
2018-08-20T10:37:55.362Z,62.9
2018-08-20T10:38:43.358Z,62.1
2018-08-20T10:39:33.426Z,61.4
2018-08-20T10:40:23.490Z,60.4
2018-08-20T10:41:13.590Z,59.6
2018-08-20T10:42:03.674Z,58.8
2018-08-20T10:42:53.436Z,58.2
2018-08-20T10:43:43.956Z,57.6
2018-08-20T10:44:33.858Z,57
2018-08-20T10:45:23.638Z,56.4
2018-08-20T10:46:13.733Z,55.8
2018-08-20T10:47:04.053Z,55.3
2018-08-20T10:47:54.114Z,54.8
2018-08-20T10:48:43.914Z,54.1
2018-08-20T10:49:34.247Z,53.4
2018-08-20T10:50:24.302Z,52.8
2018-08-20T10:51:14.402Z,52.2
2018-08-20T10:52:04.161Z,51.6
2018-08-20T10:52:54.024Z,51
2018-08-20T10:53:44.299Z,50.4
2018-08-20T10:54:34.640Z,49.9
2018-08-20T10:55:23.954Z,49.4
2018-08-20T10:56:14.994Z,48.9
2018-08-20T10:57:04.342Z,48.5
2018-08-20T10:57:54.886Z,48.1
2018-08-20T10:58:44.988Z,47.7
2018-08-20T10:59:34.989Z,47.3
2018-08-20T11:00:25.076Z,46.9
2018-08-20T11:01:15.147Z,46.5
2018-08-20T11:02:06.029Z,46.1
2018-08-20T11:02:55.261Z,45.8
2018-08-20T11:03:45.326Z,45.5
2018-08-20T11:04:34.845Z,45.1
2018-08-20T11:05:25.460Z,44.8
2018-08-20T11:06:15.519Z,44.5
2018-08-20T11:07:05.581Z,44.2
2018-08-20T11:07:55.641Z,43.9
2018-08-20T11:08:45.736Z,43.7
2018-08-20T11:09:35.246Z,43.4
2018-08-20T11:10:25.838Z,43.2
2018-08-20T11:11:15.948Z,42.9
2018-08-20T11:12:05.981Z,42.8
2018-08-20T11:12:55.580Z,42.5
2018-08-20T11:13:46.108Z,42.3
2018-08-20T11:14:36.244Z,42.1
2018-08-20T11:15:25.760Z,41.9
2018-08-20T11:16:16.297Z,41.7
2018-08-20T11:17:05.836Z,41.4
2018-08-20T11:17:56.473Z,41.3
2018-08-20T11:18:47.009Z,41.1
2018-08-20T11:19:36.313Z,40.9
2018-08-20T11:20:26.423Z,40.8
2018-08-20T11:21:16.710Z,40.6
2018-08-20T11:22:06.518Z,40.4
2018-08-20T11:22:56.626Z,40.3
2018-08-20T11:23:46.927Z,40.1
2018-08-20T11:24:36.765Z,39.9
2018-08-20T11:25:27.052Z,39.8
2018-08-20T11:26:16.597Z,39.6
2018-08-20T11:27:07.210Z,39.4
2018-08-20T11:27:57.243Z,39.3
2018-08-20T11:28:47.340Z,39.1
2018-08-20T11:29:37.112Z,39
2018-08-20T11:30:27.457Z,38.8
2018-08-20T11:31:17.250Z,38.7
2018-08-20T11:32:07.567Z,38.6
2018-08-20T11:32:57.358Z,38.4
2018-08-20T11:33:47.693Z,38.3
2018-08-20T11:34:37.502Z,38.2
2018-08-20T11:35:27.797Z,38.1
2018-08-20T11:36:17.880Z,37.9
2018-08-20T11:37:07.954Z,37.8
2018-08-20T11:37:58.001Z,37.7
2018-08-20T11:38:47.795Z,37.6
2018-08-20T11:39:37.857Z,37.4
2018-08-20T11:40:28.197Z,37.3
2018-08-20T11:41:18.240Z,37.3
2018-08-20T11:42:08.330Z,37.1
2018-08-20T11:42:58.386Z,37
2018-08-20T11:43:48.494Z,36.9
2018-08-20T11:44:38.536Z,36.8
2018-08-20T11:45:28.567Z,36.7
2018-08-20T11:46:18.876Z,36.6
2018-08-20T11:47:08.732Z,36.4
2018-08-20T11:47:58.811Z,36.4
2018-08-20T11:48:48.851Z,36.3
2018-08-20T11:49:38.634Z,36.2
2018-08-20T11:50:28.708Z,36.1
2018-08-20T11:51:19.067Z,36.1
2018-08-20T11:52:09.164Z,35.9
2018-08-20T11:52:59.257Z,35.9
2018-08-20T11:53:48.731Z,35.8
2018-08-20T11:54:38.826Z,35.7
2018-08-20T11:55:29.126Z,35.6
2018-08-20T11:56:19.493Z,35.5
2018-08-20T11:57:09.266Z,35.4
2018-08-20T11:57:59.048Z,35.4
2018-08-20T11:58:49.410Z,35.3
2018-08-20T11:59:39.773Z,35.2
2018-08-20T12:00:29.888Z,35.1
2018-08-20T12:01:19.875Z,35